Time;durP1;ratioP1;P1;durP2;ratioP2;P2;SDS_P1;SDS_P2;PMS_P1;PMS_P2;Temp;Humidity;BMP_temperature;BMP_pressure;BME280_temperature;BME280_humidity;BME280_pressure;Samples;Min_cycle;Max_cycle;Signal;HPM_P1;HPM_P2
2024/02/28 00:00:55;;;;;;;114.10;48.75;;;;;;;;;;4917219;29;20093;-94
2024/02/28 00:03:27;;;;;;;94.95;45.78;;;;;;;;;;4915550;29;20024;-94
2024/02/28 00:05:53;;;;;;;101.47;47.08;;;;;;;;;;4916058;29;20474;-94
2024/02/28 00:08:20;;;;;;;128.30;52.05;;;;;;;;;;4915830;29;20032;-94
2024/02/28 00:11:07;;;;;;;126.97;51.80;;;;;;;;;;4913023;29;20891;-94
2024/02/28 00:13:43;;;;;;;112.45;48.40;;;;;;;;;;4915591;29;20052;-94
2024/02/28 00:16:12;;;;;;;116.57;50.03;;;;;;;;;;4915628;29;20059;-95
2024/02/28 00:18:44;;;;;;;122.03;50.40;;;;;;;;;;4900223;29;20036;-94
2024/02/28 00:21:16;;;;;;;131.23;52.88;;;;;;;;;;4908492;29;20047;-93
2024/02/28 00:23:42;;;;;;;119.10;50.13;;;;;;;;;;4928029;29;20131;-93
2024/02/28 00:26:15;;;;;;;121.63;50.70;;;;;;;;;;4922893;29;20746;-93
2024/02/28 00:28:44;;;;;;;113.97;48.97;;;;;;;;;;4922774;29;20055;-94
2024/02/28 00:31:21;;;;;;;114.28;48.08;;;;;;;;;;4922887;29;20473;-93
2024/02/28 00:33:50;;;;;;;94.22;44.20;;;;;;;;;;4917282;29;20039;-95
2024/02/28 00:36:19;;;;;;;86.22;44.38;;;;;;;;;;4922868;29;20020;-94
2024/02/28 00:44:31;;;;;;;150.00;62.50;;;;;;;;;;4966330;23;20051;-93
2024/02/28 00:46:57;;;;;;;97.55;47.80;;;;;;;;;;4950174;29;20027;-94
2024/02/28 00:49:23;;;;;;;122.00;55.10;;;;;;;;;;4957239;28;20121;-94
2024/02/28 00:51:49;;;;;;;118.28;51.30;;;;;;;;;;4957336;28;20031;-93
2024/02/28 00:54:18;;;;;;;117.40;53.03;;;;;;;;;;4957422;28;20024;-92
2024/02/28 00:56:48;;;;;;;126.93;55.28;;;;;;;;;;4938326;29;20062;-93
2024/02/28 00:59:14;;;;;;;85.57;44.65;;;;;;;;;;4938573;29;20028;-93
2024/02/28 01:01:46;;;;;;;139.25;54.80;;;;;;;;;;4937882;29;20032;-94
2024/02/28 01:04:18;;;;;;;86.35;45.00;;;;;;;;;;4938453;29;20036;-93
2024/02/28 01:06:47;;;;;;;79.40;41.33;;;;;;;;;;4938524;29;20361;-93
2024/02/28 01:09:25;;;;;;;105.13;52.53;;;;;;;;;;4937837;29;20032;-93
2024/02/28 01:12:04;;;;;;;99.55;52.40;;;;;;;;;;4938025;29;20393;-92
2024/02/28 01:14:30;;;;;;;145.68;71.63;;;;;;;;;;4938963;29;20458;-94
2024/02/28 01:16:59;;;;;;;176.30;84.55;;;;;;;;;;4937733;29;20024;-94
2024/02/28 01:19:28;;;;;;;194.05;88.43;;;;;;;;;;4932336;29;20040;-93
2024/02/28 01:22:04;;;;;;;220.52;104.88;;;;;;;;;;4947275;29;20026;-93
2024/02/28 01:24:30;;;;;;;178.77;90.65;;;;;;;;;;4940855;29;20433;-93
2024/02/28 01:26:59;;;;;;;198.15;91.15;;;;;;;;;;4940763;29;20481;-93
2024/02/28 01:29:34;;;;;;;163.70;75.03;;;;;;;;;;4940754;29;20059;-92
2024/02/28 01:37:58;;;;;;;96.00;49.83;;;;;;;;;;4958094;29;20519;-92
2024/02/28 01:40:24;;;;;;;109.10;54.38;;;;;;;;;;4940320;29;20267;-92
2024/02/28 01:42:55;;;;;;;102.50;51.90;;;;;;;;;;4940288;29;20151;-92
2024/02/28 01:45:27;;;;;;;110.72;54.25;;;;;;;;;;4940547;29;20042;-93
2024/02/28 01:47:59;;;;;;;110.63;55.22;;;;;;;;;;4941202;29;20596;-92
2024/02/28 01:50:34;;;;;;;121.35;57.20;;;;;;;;;;4942268;29;20027;-93
2024/02/28 01:53:08;;;;;;;114.35;54.03;;;;;;;;;;4927307;29;20046;-93
2024/02/28 01:55:41;;;;;;;117.75;52.40;;;;;;;;;;4940265;29;20034;-94
2024/02/28 01:58:27;;;;;;;115.57;50.35;;;;;;;;;;4940032;29;20501;-93
2024/02/28 02:00:57;;;;;;;100.57;48.10;;;;;;;;;;4926810;29;20136;-93
2024/02/28 02:03:26;;;;;;;112.00;50.88;;;;;;;;;;4932357;29;20108;-93
2024/02/28 02:05:58;;;;;;;126.05;53.78;;;;;;;;;;4920869;29;20091;-94
2024/02/28 02:08:27;;;;;;;87.03;46.63;;;;;;;;;;4928112;29;20035;-93
2024/02/28 02:10:53;;;;;;;101.38;50.78;;;;;;;;;;4939908;29;20074;-94
2024/02/28 02:16:33;;;;;;;98.75;47.80;;;;;;;;;;4942932;29;20094;-93
2024/02/28 02:18:59;;;;;;;73.15;40.85;;;;;;;;;;4917528;29;20035;-93
2024/02/28 02:27:35;;;;;;;98.00;45.65;;;;;;;;;;4963768;23;20050;-92
2024/02/28 02:33:08;;;;;;;104.65;49.65;;;;;;;;;;4937736;29;20047;-93
2024/02/28 02:35:40;;;;;;;108.18;55.53;;;;;;;;;;4920415;29;20032;-94
2024/02/28 02:38:09;;;;;;;118.60;56.47;;;;;;;;;;4920587;29;20023;-93
2024/02/28 02:40:41;;;;;;;115.03;53.72;;;;;;;;;;4920525;29;20059;-92
2024/02/28 02:43:08;;;;;;;109.47;48.75;;;;;;;;;;4920124;29;20484;-94
2024/02/28 02:51:44;;;;;;;79.43;42.67;;;;;;;;;;4930115;29;20065;-94
2024/02/28 02:54:16;;;;;;;112.55;51.20;;;;;;;;;;4920196;29;20024;-93
2024/02/28 02:56:45;;;;;;;78.40;42.70;;;;;;;;;;4960574;23;20081;-93
2024/02/28 02:59:21;;;;;;;60.85;34.67;;;;;;;;;;4939057;29;20081;-93
2024/02/28 03:01:50;;;;;;;67.22;39.22;;;;;;;;;;4954611;28;20111;-93
2024/02/28 03:04:19;;;;;;;93.82;47.90;;;;;;;;;;4941741;29;20098;-95
2024/02/28 03:06:48;;;;;;;67.57;38.13;;;;;;;;;;4949579;29;20015;-94
2024/02/28 03:09:17;;;;;;;67.40;38.33;;;;;;;;;;4957334;29;20035;-93
2024/02/28 03:11:43;;;;;;;88.20;43.92;;;;;;;;;;4940865;29;20086;-94
2024/02/28 03:14:15;;;;;;;92.70;46.30;;;;;;;;;;4938619;29;20123;-94
2024/02/28 03:16:50;;;;;;;93.40;45.90;;;;;;;;;;4938280;29;20083;-96
2024/02/28 03:19:21;;;;;;;91.35;43.78;;;;;;;;;;4938230;29;20024;-94
2024/02/28 03:21:53;;;;;;;50.67;31.92;;;;;;;;;;4953673;28;20038;-95
2024/02/28 03:24:19;;;;;;;95.50;44.65;;;;;;;;;;4930337;29;20043;-94
2024/02/28 03:26:53;;;;;;;63.78;38.10;;;;;;;;;;4930952;29;20055;-92
2024/02/28 03:29:30;;;;;;;86.65;45.40;;;;;;;;;;4932630;29;20403;-94
2024/02/28 03:31:59;;;;;;;95.88;46.08;;;;;;;;;;4935211;29;20036;-93
2024/02/28 03:34:34;;;;;;;83.28;44.88;;;;;;;;;;4919266;29;20075;-94
2024/02/28 03:37:09;;;;;;;88.85;43.92;;;;;;;;;;4919299;29;20552;-94
2024/02/28 03:39:37;;;;;;;87.50;44.15;;;;;;;;;;4919067;29;20052;-94
2024/02/28 03:44:53;;;;;;;58.97;33.08;;;;;;;;;;4937321;29;20051;-93
2024/02/28 03:47:26;;;;;;;80.40;39.40;;;;;;;;;;4912716;29;20080;-93
2024/02/28 03:49:52;;;;;;;63.85;36.22;;;;;;;;;;4915789;29;20028;-95
2024/02/28 03:52:18;;;;;;;75.38;38.15;;;;;;;;;;4919301;29;20126;-93
2024/02/28 03:54:47;;;;;;;59.15;33.80;;;;;;;;;;4919959;29;20058;-93
2024/02/28 03:57:13;;;;;;;77.32;38.90;;;;;;;;;;4918159;29;20055;-94
2024/02/28 03:59:44;;;;;;;77.35;37.92;;;;;;;;;;4923387;29;20092;-94
2024/02/28 04:02:13;;;;;;;72.90;37.40;;;;;;;;;;4923252;29;20114;-94
2024/02/28 04:04:42;;;;;;;78.65;38.20;;;;;;;;;;4923085;29;20135;-94
2024/02/28 04:07:14;;;;;;;70.35;35.97;;;;;;;;;;4923200;29;20450;-93
2024/02/28 04:12:48;;;;;;;59.28;34.50;;;;;;;;;;4959597;29;20034;-92
2024/02/28 04:15:18;;;;;;;65.60;34.55;;;;;;;;;;4942092;29;20039;-95
2024/02/28 04:17:44;;;;;;;69.82;35.88;;;;;;;;;;4941937;29;20035;-94
2024/02/28 04:20:19;;;;;;;70.80;36.30;;;;;;;;;;4942965;29;20038;-95
2024/02/28 04:22:48;;;;;;;67.07;34.30;;;;;;;;;;4941420;29;20035;-94
2024/02/28 04:25:23;;;;;;;73.55;37.88;;;;;;;;;;4941320;29;20503;-94
2024/02/28 04:27:52;;;;;;;42.17;28.23;;;;;;;;;;4941348;29;20023;-93
2024/02/28 04:30:21;;;;;;;48.63;30.15;;;;;;;;;;4942526;29;20070;-94
2024/02/28 04:38:54;;;;;;;50.43;28.57;;;;;;;;;;4959008;28;20114;-93
2024/02/28 04:44:10;;;;;;;59.88;31.95;;;;;;;;;;4958816;29;20381;-93
2024/02/28 04:46:42;;;;;;;64.63;33.83;;;;;;;;;;4942019;29;20484;-94
2024/02/28 04:49:09;;;;;;;51.80;31.73;;;;;;;;;;4941839;29;20019;-93
2024/02/28 04:51:38;;;;;;;41.58;26.02;;;;;;;;;;4967357;28;20031;-92
2024/02/28 04:54:27;;;;;;;48.70;29.25;;;;;;;;;;4943556;29;20041;-93
2024/02/28 04:57:02;;;;;;;51.03;28.83;;;;;;;;;;4941202;29;20508;-93
2024/02/28 04:59:32;;;;;;;58.38;30.35;;;;;;;;;;4941138;29;20691;-94
2024/02/28 05:01:58;;;;;;;56.28;31.38;;;;;;;;;;4941288;29;20152;-93
2024/02/28 05:04:30;;;;;;;58.15;30.70;;;;;;;;;;4941362;29;20039;-92
2024/02/28 05:06:56;;;;;;;51.03;31.10;;;;;;;;;;4941086;29;20536;-93
2024/02/28 05:09:28;;;;;;;43.08;26.48;;;;;;;;;;4941405;29;20131;-93
2024/02/28 05:11:54;;;;;;;47.60;29.55;;;;;;;;;;4942085;29;20027;-94
2024/02/28 05:14:23;;;;;;;62.38;32.33;;;;;;;;;;4940799;29;20392;-93
2024/02/28 05:16:52;;;;;;;61.33;32.03;;;;;;;;;;4940938;29;20078;-94
2024/02/28 05:22:22;;;;;;;52.88;29.75;;;;;;;;;;4958647;28;20038;-91
2024/02/28 05:24:50;;;;;;;60.35;32.63;;;;;;;;;;4958014;28;20504;-93
2024/02/28 05:27:16;;;;;;;63.58;33.13;;;;;;;;;;4941033;29;20035;-93
2024/02/28 05:29:43;;;;;;;52.65;30.92;;;;;;;;;;4940868;29;20035;-92
2024/02/28 05:32:12;;;;;;;67.55;32.15;;;;;;;;;;4940986;29;20034;-92
2024/02/28 05:34:38;;;;;;;61.22;33.45;;;;;;;;;;4940746;29;20500;-93
2024/02/28 05:37:07;;;;;;;72.00;33.05;;;;;;;;;;4941151;29;20032;-92
2024/02/28 05:39:37;;;;;;;69.57;35.40;;;;;;;;;;4941468;29;20536;-92
2024/02/28 05:42:03;;;;;;;64.13;32.55;;;;;;;;;;4944408;29;20035;-92
2024/02/28 05:44:32;;;;;;;43.30;26.10;;;;;;;;;;4940444;29;20090;-91
2024/02/28 05:46:58;;;;;;;61.00;32.97;;;;;;;;;;4940853;29;20031;-94
2024/02/28 05:49:27;;;;;;;62.20;31.88;;;;;;;;;;4963822;28;20030;-91
2024/02/28 05:51:56;;;;;;;67.55;34.53;;;;;;;;;;4936568;29;20039;-93
2024/02/28 05:54:33;;;;;;;67.90;35.13;;;;;;;;;;4940569;29;20041;-92
2024/02/28 05:57:00;;;;;;;64.55;32.80;;;;;;;;;;4936719;29;20047;-94
2024/02/28 05:59:29;;;;;;;49.72;28.38;;;;;;;;;;4921887;29;20032;-95
2024/02/28 06:02:01;;;;;;;64.30;31.60;;;;;;;;;;4937821;29;20027;-95
2024/02/28 06:04:27;;;;;;;64.63;34.10;;;;;;;;;;4936901;29;20170;-94
2024/02/28 06:06:54;;;;;;;60.80;32.92;;;;;;;;;;4950061;29;20015;-94
2024/02/28 06:09:55;;;;;;;64.85;31.90;;;;;;;;;;4941705;29;20038;-96
2024/02/28 06:12:32;;;;;;;57.40;29.40;;;;;;;;;;4941378;29;20036;-96
2024/02/28 06:15:17;;;;;;;;;;;;;;;;;;;;;
2024/02/28 06:18:28;;;;;;;;;;;;;;;;;;;;;
2024/02/28 06:23:37;;;;;;;66.18;33.67;;;;;;;;;;4958091;28;20111;-94
2024/02/28 06:26:16;;;;;;;61.70;34.08;;;;;;;;;;4913703;29;20434;-94
2024/02/28 06:28:50;;;;;;;59.03;31.63;;;;;;;;;;4923540;29;20505;-95
2024/02/28 06:31:22;;;;;;;59.90;32.92;;;;;;;;;;4908714;29;20051;-93
2024/02/28 06:34:10;;;;;;;79.28;39.70;;;;;;;;;;4918334;29;20032;-93
2024/02/28 06:36:40;;;;;;;55.78;31.08;;;;;;;;;;4901660;29;20038;-92
2024/02/28 06:39:08;;;;;;;62.17;35.47;;;;;;;;;;4901918;29;20028;-93
2024/02/28 06:41:35;;;;;;;59.63;33.97;;;;;;;;;;4901982;29;20470;-93
2024/02/28 06:44:07;;;;;;;54.90;31.88;;;;;;;;;;4901683;29;20056;-92
2024/02/28 06:46:33;;;;;;;51.00;29.80;;;;;;;;;;4901549;29;20122;-91
2024/02/28 06:49:04;;;;;;;50.40;30.48;;;;;;;;;;4901476;29;20765;-89
2024/02/28 06:54:33;;;;;;;46.00;27.47;;;;;;;;;;4937441;29;20527;-93
2024/02/28 06:56:59;;;;;;;45.90;29.20;;;;;;;;;;4920473;29;20028;-92
2024/02/28 06:59:46;;;;;;;42.80;27.77;;;;;;;;;;4920304;29;20059;-92
2024/02/28 07:02:18;;;;;;;40.30;26.48;;;;;;;;;;4920439;29;20031;-91
2024/02/28 07:04:56;;;;;;;41.08;24.77;;;;;;;;;;4908239;29;20040;-92
2024/02/28 07:07:34;;;;;;;43.55;23.70;;;;;;;;;;4919011;29;20028;-92
2024/02/28 07:10:00;;;;;;;32.15;22.23;;;;;;;;;;4907786;29;20079;-91
2024/02/28 07:15:31;;;;;;;26.75;19.40;;;;;;;;;;4926323;29;20043;-90
2024/02/28 07:17:58;;;;;;;27.90;18.20;;;;;;;;;;4909645;29;20159;-94
2024/02/28 07:20:51;;;;;;;31.70;25.08;;;;;;;;;;4921351;29;20499;-93
2024/02/28 07:23:17;;;;;;;;;;;;;;;;;;5081402;23;21084;-94
2024/02/28 07:25:56;;;;;;;29.65;23.27;;;;;;;;;;4951669;28;19923;-91
2024/02/28 07:28:22;;;;;;;31.08;27.67;;;;;;;;;;4933694;29;20024;-92
2024/02/28 07:30:48;;;;;;;37.42;30.33;;;;;;;;;;4936187;29;20545;-90
2024/02/28 07:33:14;;;;;;;33.08;28.88;;;;;;;;;;4915194;29;20032;-90
2024/02/28 07:35:53;;;;;;;32.88;29.52;;;;;;;;;;4921292;29;20034;-92
2024/02/28 07:38:28;;;;;;;37.30;27.92;;;;;;;;;;4920712;29;20032;-93
2024/02/28 07:40:57;;;;;;;28.73;24.38;;;;;;;;;;4920372;29;20032;-92
2024/02/28 07:43:23;;;;;;;33.47;29.60;;;;;;;;;;4920231;29;20040;-92
2024/02/28 07:45:49;;;;;;;22.90;19.15;;;;;;;;;;4923564;29;20035;-92
2024/02/28 07:48:37;;;;;;;25.67;18.30;;;;;;;;;;4920739;29;20040;-94
2024/02/28 07:51:08;;;;;;;26.15;23.23;;;;;;;;;;4940246;29;20067;-94
2024/02/28 07:53:34;;;;;;;29.25;17.75;;;;;;;;;;4910414;29;20051;-94
2024/02/28 07:56:16;;;;;;;22.02;18.08;;;;;;;;;;4904706;29;20032;-93
2024/02/28 07:58:56;;;;;;;25.33;21.38;;;;;;;;;;4915466;29;20024;-93
2024/02/28 08:01:28;;;;;;;21.88;16.38;;;;;;;;;;4920294;29;20127;-93
2024/02/28 08:03:54;;;;;;;23.20;19.23;;;;;;;;;;4920420;29;20124;-93
2024/02/28 08:06:21;;;;;;;24.48;21.98;;;;;;;;;;4920208;29;20032;-92
2024/02/28 08:08:47;;;;;;;28.50;23.85;;;;;;;;;;4922282;29;20047;-93
2024/02/28 08:11:14;;;;;;;27.30;21.73;;;;;;;;;;4920367;29;20063;-93
2024/02/28 08:13:48;;;;;;;37.00;31.52;;;;;;;;;;4921709;29;20034;-93
2024/02/28 08:16:14;;;;;;;29.80;26.75;;;;;;;;;;4920073;29;20172;-92
2024/02/28 08:18:40;;;;;;;31.23;24.38;;;;;;;;;;4917940;29;20043;-93
2024/02/28 08:21:06;;;;;;;27.58;24.55;;;;;;;;;;4920711;29;20481;-93
2024/02/28 08:23:35;;;;;;;23.52;20.15;;;;;;;;;;4920390;29;20482;-94
2024/02/28 08:26:04;;;;;;;23.55;20.92;;;;;;;;;;4922925;29;20040;-93
2024/02/28 08:28:36;;;;;;;24.08;21.50;;;;;;;;;;4923229;29;20028;-93
2024/02/28 08:31:02;;;;;;;26.02;23.45;;;;;;;;;;4922884;29;20032;-94
2024/02/28 08:33:28;;;;;;;33.80;22.73;;;;;;;;;;4923015;29;20027;-94
2024/02/28 08:36:13;;;;;;;25.15;22.20;;;;;;;;;;4924268;29;20028;-93
2024/02/28 08:38:48;;;;;;;25.13;18.80;;;;;;;;;;4941495;29;20035;-93
2024/02/28 08:41:14;;;;;;;27.25;21.75;;;;;;;;;;4959042;29;20453;-93
2024/02/28 08:43:41;;;;;;;21.00;18.33;;;;;;;;;;4926401;29;20046;-92
2024/02/28 08:52:18;;;;;;;25.80;23.30;;;;;;;;;;4958599;28;20050;-90
2024/02/28 08:54:44;;;;;;;31.05;24.25;;;;;;;;;;4956123;29;20082;-91
2024/02/28 08:57:10;;;;;;;25.83;21.15;;;;;;;;;;4951727;29;20507;-92
2024/02/28 08:59:42;;;;;;;25.23;22.38;;;;;;;;;;4967743;28;20042;-90
2024/02/28 09:05:15;;;;;;;31.90;21.65;;;;;;;;;;4958208;29;20523;-93
2024/02/28 09:10:56;;;;;;;25.25;22.75;;;;;;;;;;4958641;29;20030;-93
2024/02/28 09:13:25;;;;;;;27.17;22.40;;;;;;;;;;4953051;29;20118;-91
2024/02/28 09:15:52;;;;;;;26.02;22.48;;;;;;;;;;4956940;28;20034;-91
2024/02/28 09:18:20;;;;;;;26.65;22.80;;;;;;;;;;4952222;29;20073;-92
2024/02/28 09:20:46;;;;;;;28.38;23.13;;;;;;;;;;4956871;28;20058;-91
2024/02/28 09:23:14;;;;;;;26.33;22.10;;;;;;;;;;4951309;29;20028;-90
2024/02/28 09:25:46;;;;;;;25.67;22.13;;;;;;;;;;4957143;28;20461;-91
2024/02/28 09:28:16;;;;;;;27.92;23.50;;;;;;;;;;4951152;29;20038;-91
2024/02/28 09:30:47;;;;;;;26.60;23.02;;;;;;;;;;4956829;28;20114;-92
2024/02/28 09:33:19;;;;;;;25.85;22.55;;;;;;;;;;4950967;29;20043;-93
2024/02/28 09:35:48;;;;;;;27.30;24.47;;;;;;;;;;4957351;28;20023;-91
2024/02/28 09:38:14;;;;;;;29.25;21.77;;;;;;;;;;4962345;29;20023;-92
2024/02/28 09:40:42;;;;;;;22.73;19.80;;;;;;;;;;4960848;29;20114;-89
2024/02/28 09:43:32;;;;;;;29.65;23.17;;;;;;;;;;4952456;29;20040;-91
2024/02/28 09:46:03;;;;;;;29.25;23.83;;;;;;;;;;4956647;28;20086;-90
2024/02/28 09:48:33;;;;;;;28.92;24.23;;;;;;;;;;4940288;29;20043;-92
2024/02/28 09:51:02;;;;;;;25.40;21.45;;;;;;;;;;4940016;29;20034;-92
2024/02/28 09:53:29;;;;;;;28.77;23.35;;;;;;;;;;4940907;29;20123;-91
2024/02/28 09:55:55;;;;;;;27.95;24.52;;;;;;;;;;4939188;29;20102;-91
2024/02/28 09:58:21;;;;;;;28.15;21.63;;;;;;;;;;4940178;29;20110;-92
2024/02/28 10:03:35;;;;;;;30.17;24.02;;;;;;;;;;4954854;23;20063;-92
2024/02/28 10:06:02;;;;;;;30.00;21.05;;;;;;;;;;4936790;29;20497;-92
2024/02/28 10:08:29;;;;;;;27.58;22.40;;;;;;;;;;4936997;29;20031;-92
2024/02/28 10:11:01;;;;;;;30.67;24.10;;;;;;;;;;4937097;29;20036;-92
2024/02/28 10:16:37;;;;;;;28.33;23.63;;;;;;;;;;4937928;29;20194;-91
2024/02/28 10:19:06;;;;;;;29.42;22.05;;;;;;;;;;4936431;29;20027;-92
2024/02/28 10:21:46;;;;;;;27.35;22.40;;;;;;;;;;4936696;29;20027;-91
2024/02/28 10:24:17;;;;;;;29.83;24.55;;;;;;;;;;4936803;29;20091;-92
2024/02/28 10:32:56;;;;;;;27.17;24.00;;;;;;;;;;4944661;29;20044;-91
2024/02/28 10:35:28;;;;;;;29.45;25.33;;;;;;;;;;4955969;29;20043;-92
2024/02/28 10:37:57;;;;;;;31.55;25.02;;;;;;;;;;4940652;29;20489;-92
2024/02/28 10:40:23;;;;;;;25.92;23.10;;;;;;;;;;4936116;29;20477;-92
2024/02/28 10:42:49;;;;;;;28.23;25.17;;;;;;;;;;4936510;29;20028;-91
2024/02/28 10:45:18;;;;;;;31.63;24.33;;;;;;;;;;4936364;29;20047;-92
2024/02/28 10:47:48;;;;;;;32.65;25.17;;;;;;;;;;4936304;29;20027;-92
2024/02/28 10:50:16;;;;;;;34.22;26.92;;;;;;;;;;4935863;29;20036;-91
2024/02/28 10:52:49;;;;;;;33.38;24.77;;;;;;;;;;4935624;29;20040;-91
2024/02/28 10:55:23;;;;;;;30.75;25.88;;;;;;;;;;4936298;29;20032;-91
2024/02/28 10:58:16;;;;;;;34.97;27.15;;;;;;;;;;4936063;29;20400;-92
2024/02/28 11:00:44;;;;;;;36.63;28.02;;;;;;;;;;4932474;29;20038;-91
2024/02/28 11:03:11;;;;;;;29.50;24.55;;;;;;;;;;4935599;29;20048;-91
2024/02/28 11:05:57;;;;;;;30.50;25.15;;;;;;;;;;4936150;29;20449;-91
2024/02/28 11:08:51;;;;;;;;;;;;;;;;;;;;;
2024/02/28 11:11:20;;;;;;;30.38;23.27;;;;;;;;;;4917864;29;20036;-92
2024/02/28 11:13:56;;;;;;;27.60;22.40;;;;;;;;;;4916772;29;20032;-92
2024/02/28 11:16:32;;;;;;;28.63;23.92;;;;;;;;;;4917082;29;20497;-92
2024/02/28 11:18:59;;;;;;;27.17;22.13;;;;;;;;;;4917391;29;20087;-92
2024/02/28 11:21:31;;;;;;;29.55;24.60;;;;;;;;;;4917077;29;20042;-91
2024/02/28 11:23:58;;;;;;;26.67;22.33;;;;;;;;;;4916847;29;20024;-92
2024/02/28 11:26:25;;;;;;;25.27;21.77;;;;;;;;;;4916892;29;20074;-92
2024/02/28 11:28:54;;;;;;;26.67;22.45;;;;;;;;;;4905596;29;20106;-92
2024/02/28 11:31:24;;;;;;;33.15;23.23;;;;;;;;;;4917188;29;20076;-91
2024/02/28 11:33:51;;;;;;;27.40;23.00;;;;;;;;;;4916774;29;20028;-91
2024/02/28 11:36:17;;;;;;;30.17;22.67;;;;;;;;;;4916876;29;20470;-92
2024/02/28 11:38:46;;;;;;;25.38;22.60;;;;;;;;;;4916723;29;20117;-91
2024/02/28 11:41:15;;;;;;;28.02;22.70;;;;;;;;;;4917064;29;20071;-92
2024/02/28 11:43:44;;;;;;;29.10;24.08;;;;;;;;;;4916321;29;20035;-93
2024/02/28 11:46:14;;;;;;;32.20;24.65;;;;;;;;;;4919104;29;20039;-94
2024/02/28 11:48:41;;;;;;;30.52;25.23;;;;;;;;;;4935521;29;20481;-93
2024/02/28 11:54:36;;;;;;;33.72;24.83;;;;;;;;;;4936667;29;20083;-92
2024/02/28 11:57:06;;;;;;;33.03;24.08;;;;;;;;;;4935195;29;20087;-92
2024/02/28 11:59:34;;;;;;;32.63;26.73;;;;;;;;;;4935555;29;20032;-91
2024/02/28 12:02:01;;;;;;;32.10;24.80;;;;;;;;;;4935296;29;20028;-91
2024/02/28 12:04:27;;;;;;;33.13;26.58;;;;;;;;;;4935299;29;20473;-91
2024/02/28 12:06:56;;;;;;;32.90;26.10;;;;;;;;;;4935668;29;20047;-90
2024/02/28 12:09:27;;;;;;;31.65;26.35;;;;;;;;;;4959285;28;20055;-91
2024/02/28 12:12:01;;;;;;;29.83;26.60;;;;;;;;;;4941094;29;20043;-91
2024/02/28 12:14:36;;;;;;;31.35;25.00;;;;;;;;;;4935073;29;20074;-92
2024/02/28 12:17:11;;;;;;;28.50;25.45;;;;;;;;;;4935116;29;20039;-91
2024/02/28 12:19:43;;;;;;;29.38;25.85;;;;;;;;;;4937638;29;20032;-91
2024/02/28 12:22:09;;;;;;;31.75;26.73;;;;;;;;;;4938817;29;20042;-93
2024/02/28 12:24:38;;;;;;;27.48;23.23;;;;;;;;;;4940199;29;20040;-91
2024/02/28 12:27:04;;;;;;;29.15;23.98;;;;;;;;;;4939214;29;20519;-95
2024/02/28 12:29:31;;;;;;;30.63;24.77;;;;;;;;;;4938962;29;20035;-93
2024/02/28 12:31:57;;;;;;;29.17;23.27;;;;;;;;;;4938677;29;20035;-91
2024/02/28 12:34:23;;;;;;;29.45;23.33;;;;;;;;;;4938430;29;20026;-93
2024/02/28 12:36:53;;;;;;;28.42;23.30;;;;;;;;;;4938347;29;20032;-92
2024/02/28 12:42:27;;;;;;;25.98;23.23;;;;;;;;;;4939489;29;20094;-91
2024/02/28 12:45:00;;;;;;;28.02;23.85;;;;;;;;;;4944818;29;20020;-91
2024/02/28 12:47:44;;;;;;;29.38;23.42;;;;;;;;;;4957773;29;20051;-92
2024/02/28 12:50:10;;;;;;;27.48;24.52;;;;;;;;;;4941924;29;20042;-91
2024/02/28 12:52:53;;;;;;;29.02;23.83;;;;;;;;;;4938041;29;20023;-91
2024/02/28 12:55:28;;;;;;;30.65;25.17;;;;;;;;;;4938647;29;20063;-92
2024/02/28 12:57:59;;;;;;;33.03;25.40;;;;;;;;;;4938831;29;20028;-91
2024/02/28 13:00:25;;;;;;;30.27;23.80;;;;;;;;;;4938937;29;20046;-90
2024/02/28 13:02:52;;;;;;;29.08;23.95;;;;;;;;;;4941024;29;20114;-90
2024/02/28 13:05:18;;;;;;;33.30;24.67;;;;;;;;;;4939312;29;20044;-89
2024/02/28 13:08:03;;;;;;;30.55;25.65;;;;;;;;;;4938256;29;20034;-90
2024/02/28 13:15:38;;;;;;;30.33;25.75;;;;;;;;;;4938066;29;20043;-90
2024/02/28 13:18:38;;;;;;;30.70;26.27;;;;;;;;;;4922676;29;20031;-90
2024/02/28 13:21:04;;;;;;;29.63;26.25;;;;;;;;;;4922466;29;20042;-91
2024/02/28 13:23:31;;;;;;;33.95;29.15;;;;;;;;;;4921745;29;20046;-93
2024/02/28 13:26:00;;;;;;;30.98;27.77;;;;;;;;;;4933510;29;20043;-89
2024/02/28 13:28:33;;;;;;;32.90;26.65;;;;;;;;;;4940987;28;20468;-90
2024/02/28 13:31:06;;;;;;;35.35;28.35;;;;;;;;;;4941110;29;20484;-90
2024/02/28 13:33:32;;;;;;;35.88;28.88;;;;;;;;;;4940967;29;20027;-91
2024/02/28 13:36:01;;;;;;;31.92;25.90;;;;;;;;;;4930330;29;20393;-91
2024/02/28 13:38:27;;;;;;;35.97;27.63;;;;;;;;;;4935686;29;20146;-91
2024/02/28 13:40:53;;;;;;;32.92;28.25;;;;;;;;;;4941028;29;20123;-90
2024/02/28 13:43:20;;;;;;;32.50;27.27;;;;;;;;;;4947770;29;20099;-87
2024/02/28 13:45:51;;;;;;;30.10;26.67;;;;;;;;;;4945991;29;20047;-89
2024/02/28 13:48:28;;;;;;;32.47;25.20;;;;;;;;;;4941194;29;20028;-89
2024/02/28 13:50:54;;;;;;;30.50;26.95;;;;;;;;;;4940892;29;20384;-89
2024/02/28 13:53:21;;;;;;;43.30;34.10;;;;;;;;;;4940396;29;20051;-89
2024/02/28 13:55:53;;;;;;;39.42;28.80;;;;;;;;;;4940136;29;20110;-91
2024/02/28 13:58:20;;;;;;;37.60;29.70;;;;;;;;;;4938062;29;20106;-88
2024/02/28 14:00:49;;;;;;;36.55;30.20;;;;;;;;;;4920877;29;20040;-91
2024/02/28 14:03:18;;;;;;;37.65;29.23;;;;;;;;;;4921293;29;20035;-90
2024/02/28 14:05:48;;;;;;;40.97;30.40;;;;;;;;;;4921345;29;20058;-87
2024/02/28 14:08:29;;;;;;;38.78;31.85;;;;;;;;;;4921070;29;20024;-89
2024/02/28 14:11:04;;;;;;;44.15;32.10;;;;;;;;;;4940079;29;20046;-89
2024/02/28 14:13:37;;;;;;;38.50;30.05;;;;;;;;;;4939551;28;20162;-90
2024/02/28 14:16:03;;;;;;;;;;;;;;;;;;4938812;29;20039;-91
2024/02/28 14:19:00;;;;;;;40.63;28.85;;;;;;;;;;4957024;28;19907;-92
2024/02/28 14:21:29;;;;;;;41.83;32.67;;;;;;;;;;4939919;29;20031;-92
2024/02/28 14:23:58;;;;;;;42.00;30.00;;;;;;;;;;4931344;29;20028;-89
2024/02/28 14:26:33;;;;;;;41.35;30.92;;;;;;;;;;4921808;29;20053;-88
2024/02/28 14:31:53;;;;;;;;;;;;;;;;;;4916221;29;20397;-95
2024/02/28 14:34:22;;;;;;;39.53;27.25;;;;;;;;;;4919143;29;19990;-91
2024/02/28 14:36:53;;;;;;;43.13;29.13;;;;;;;;;;4904039;29;20031;-92
2024/02/28 14:39:26;;;;;;;44.80;32.45;;;;;;;;;;4903776;29;20032;-91
2024/02/28 14:41:52;;;;;;;44.42;29.15;;;;;;;;;;4918015;29;20051;-88
2024/02/28 14:44:18;;;;;;;47.70;33.45;;;;;;;;;;4932151;29;20031;-90
2024/02/28 14:50:00;;;;;;;46.92;29.30;;;;;;;;;;4956476;28;20034;-89
2024/02/28 14:52:29;;;;;;;44.20;29.10;;;;;;;;;;4935293;29;20028;-90
2024/02/28 14:54:55;;;;;;;46.53;30.00;;;;;;;;;;4907657;29;20032;-90
2024/02/28 14:57:21;;;;;;;45.97;29.92;;;;;;;;;;4918121;29;20042;-90
2024/02/28 14:59:47;;;;;;;47.03;29.05;;;;;;;;;;4920333;29;20062;-90
2024/02/28 15:02:13;;;;;;;47.25;28.20;;;;;;;;;;4908948;29;20052;-90
2024/02/28 15:04:39;;;;;;;45.70;29.02;;;;;;;;;;4919482;29;20110;-89
2024/02/28 15:07:08;;;;;;;48.65;31.02;;;;;;;;;;4912634;29;20051;-89
2024/02/28 15:09:35;;;;;;;44.63;29.08;;;;;;;;;;4913680;29;20075;-90
2024/02/28 15:12:01;;;;;;;45.88;29.08;;;;;;;;;;4906409;29;20067;-91
2024/02/28 15:14:27;;;;;;;46.65;27.23;;;;;;;;;;4904575;29;20054;-91
2024/02/28 15:16:53;;;;;;;46.80;27.52;;;;;;;;;;4905588;29;20028;-90
2024/02/28 15:19:22;;;;;;;43.28;26.10;;;;;;;;;;4922524;29;20105;-90
2024/02/28 15:21:51;;;;;;;51.05;27.70;;;;;;;;;;4944112;28;20048;-91
2024/02/28 15:24:18;;;;;;;49.17;27.95;;;;;;;;;;4941663;29;20031;-90
2024/02/28 15:26:47;;;;;;;47.92;26.50;;;;;;;;;;4926274;29;20035;-91
2024/02/28 15:32:16;;;;;;;42.80;24.25;;;;;;;;;;4904169;29;20047;-90
2024/02/28 15:34:45;;;;;;;42.05;25.98;;;;;;;;;;4897743;29;20063;-91
2024/02/28 15:37:11;;;;;;;46.13;26.55;;;;;;;;;;4897908;29;20071;-90
2024/02/28 15:39:41;;;;;;;42.30;25.90;;;;;;;;;;4898147;29;20489;-90
2024/02/28 15:42:12;;;;;;;43.67;26.70;;;;;;;;;;4902785;29;20483;-89
2024/02/28 15:44:38;;;;;;;47.22;27.30;;;;;;;;;;4919666;29;20104;-91
2024/02/28 15:47:11;;;;;;;48.85;27.23;;;;;;;;;;4927062;29;20043;-92
2024/02/28 15:49:37;;;;;;;44.38;26.40;;;;;;;;;;4935373;29;20028;-91
2024/02/28 15:52:07;;;;;;;47.50;27.10;;;;;;;;;;4935478;29;20028;-91
2024/02/28 15:54:36;;;;;;;44.05;25.75;;;;;;;;;;4942080;29;20040;-90
2024/02/28 15:57:02;;;;;;;44.72;25.58;;;;;;;;;;4941477;29;20150;-90
2024/02/28 15:59:28;;;;;;;42.95;25.73;;;;;;;;;;4920487;29;20084;-91
2024/02/28 16:01:54;;;;;;;44.88;24.73;;;;;;;;;;4920094;29;20024;-91
2024/02/28 16:04:26;;;;;;;42.20;25.15;;;;;;;;;;4920706;29;20456;-91
2024/02/28 16:06:52;;;;;;;41.67;24.35;;;;;;;;;;4920737;29;20123;-93
2024/02/28 16:09:19;;;;;;;40.80;24.30;;;;;;;;;;4921292;29;20024;-91
2024/02/28 16:11:46;;;;;;;41.67;24.52;;;;;;;;;;4921270;29;20036;-91
2024/02/28 16:14:16;;;;;;;40.45;23.25;;;;;;;;;;4919771;29;20048;-93
2024/02/28 16:16:42;;;;;;;40.30;23.17;;;;;;;;;;4919877;29;20036;-90
2024/02/28 16:19:12;;;;;;;39.10;24.92;;;;;;;;;;4919921;29;20060;-90